createdAt,value
2018-07-05T00:01:26.701Z,101479.51
2018-07-05T00:04:12.513Z,101475.84
2018-07-05T00:06:58.366Z,101479.12
2018-07-05T00:09:44.192Z,101480.72
2018-07-05T00:12:29.940Z,101487.19
2018-07-05T00:15:15.849Z,101484.32
2018-07-05T00:17:55.655Z,101478.78
2018-07-05T00:20:41.196Z,101488.37
2018-07-05T00:23:27.042Z,101493.65
2018-07-05T00:26:12.773Z,101497.85
2018-07-05T00:28:58.338Z,101501.55
2018-07-05T00:31:38.058Z,101493.97
2018-07-05T00:34:23.756Z,101489.69
2018-07-05T00:37:09.544Z,101494.13
2018-07-05T00:39:55.230Z,101494.23
2018-07-05T00:42:40.784Z,101479.92
2018-07-05T00:45:26.699Z,101480.50
2018-07-05T00:48:12.460Z,101484.83
2018-07-05T00:50:58.055Z,101479.38
2018-07-05T00:53:43.585Z,101478.44
2018-07-05T00:56:29.542Z,101482.41
2018-07-05T00:59:15.203Z,101476.33
2018-07-05T01:02:00.703Z,101478.08
2018-07-05T01:04:46.484Z,101475.84
2018-07-05T01:07:32.160Z,101482.72
2018-07-05T01:10:17.968Z,101487.98
2018-07-05T01:13:03.650Z,101491.86
2018-07-05T01:15:49.320Z,101481.12
2018-07-05T01:18:35.254Z,101473.94
2018-07-05T01:21:15.120Z,101478.58
2018-07-05T01:24:00.793Z,101481.16
2018-07-05T01:26:46.416Z,101474.89
2018-07-05T01:29:26.392Z,101485.05
2018-07-05T01:32:12.220Z,101488.41
2018-07-05T01:34:52.101Z,101486.94
2018-07-05T01:37:37.891Z,101483.43
2018-07-05T01:40:17.818Z,101482.09
2018-07-05T01:43:03.467Z,101484.61
2018-07-05T01:45:55.042Z,101480.59
2018-07-05T01:48:40.892Z,101480.48
2018-07-05T01:51:26.760Z,101480.48
2018-07-05T01:54:12.515Z,101480.48
2018-07-05T01:56:58.351Z,101483.09
2018-07-05T01:59:43.818Z,101483.34
2018-07-05T02:02:29.675Z,101479.30
2018-07-05T02:05:15.537Z,101479.39
2018-07-05T02:07:55.412Z,101476.69
2018-07-05T02:10:42.859Z,101472.89
2018-07-05T02:13:29.919Z,101476.07
2018-07-05T02:16:09.898Z,101481.44
2018-07-05T02:18:55.887Z,101472.66
2018-07-05T02:21:41.766Z,101482.91
2018-07-05T02:24:27.693Z,101486.26
2018-07-05T02:27:15.032Z,101491.08
2018-07-05T02:30:00.839Z,101487.25
2018-07-05T02:32:46.640Z,101482.05
2018-07-05T02:35:32.347Z,101487.98
2018-07-05T02:38:22.021Z,101489.73
2018-07-05T02:41:02.554Z,101493.66
2018-07-05T02:43:48.388Z,101492.63
2018-07-05T02:46:29.203Z,101503.45
2018-07-05T02:49:15.053Z,101501.53
2018-07-05T02:52:00.544Z,101504.19
2018-07-05T02:54:46.212Z,101497.56
2018-07-05T02:57:32.196Z,101493.62
2018-07-05T03:00:17.779Z,101498.36
2018-07-05T03:03:03.357Z,101497.31
2018-07-05T03:05:43.081Z,101486.80
2018-07-05T03:08:32.698Z,101493.49
2018-07-05T03:11:18.380Z,101495.31
2018-07-05T03:14:03.985Z,101497.31
2018-07-05T03:16:49.688Z,101488.31
2018-07-05T03:19:35.525Z,101478.13
2018-07-05T03:22:15.748Z,101479.14
2018-07-05T03:25:01.481Z,101479.23
2018-07-05T03:27:47.142Z,101474.36
2018-07-05T03:30:33.011Z,101467.61
2018-07-05T03:33:18.558Z,101464.97
2018-07-05T03:36:04.311Z,101462.94
2018-07-05T03:38:44.026Z,101476.92
2018-07-05T03:41:29.883Z,101466.80
2018-07-05T03:44:15.509Z,101463.59
2018-07-05T03:47:01.444Z,101465.50
2018-07-05T03:49:47.247Z,101463.55
2018-07-05T03:52:33.024Z,101461.48
2018-07-05T03:55:18.844Z,101460.77
2018-07-05T03:58:04.539Z,101460.62
2018-07-05T04:00:50.171Z,101456.12
2018-07-05T04:03:35.828Z,101452.09
2018-07-05T04:06:21.511Z,101451.59
2018-07-05T04:09:07.291Z,101450.85
2018-07-05T04:11:52.996Z,101455.73
2018-07-05T04:14:38.759Z,101450.16
2018-07-05T04:17:24.467Z,101453.52
2018-07-05T04:20:04.425Z,101444.28
2018-07-05T04:22:50.146Z,101440.00
2018-07-05T04:25:30.095Z,101440.20
2018-07-05T04:28:15.641Z,101441.27
2018-07-05T04:31:01.482Z,101447.53
2018-07-05T04:33:47.353Z,101455.30
2018-07-05T04:36:32.979Z,101458.50
2018-07-05T04:39:18.591Z,101454.08
2018-07-05T04:42:04.215Z,101454.84
2018-07-05T04:44:50.114Z,101454.28
2018-07-05T04:47:35.590Z,101457.80
2018-07-05T04:50:21.299Z,101452.88
2018-07-05T04:53:07.112Z,101452.91
2018-07-05T04:55:52.938Z,101452.17
2018-07-05T04:58:38.603Z,101446.69
2018-07-05T05:01:24.311Z,101439.65
2018-07-05T05:04:09.987Z,101439.25
2018-07-05T05:06:49.827Z,101437.88
2018-07-05T05:09:35.387Z,101444.11
2018-07-05T05:12:20.928Z,101444.56
2018-07-05T05:15:06.753Z,101436.73
2018-07-05T05:17:52.535Z,101437.94
2018-07-05T05:20:38.289Z,101439.52
2018-07-05T05:23:24.028Z,101445.27
2018-07-05T05:26:09.629Z,101447.70
2018-07-05T05:28:49.341Z,101445.97
2018-07-05T05:31:35.143Z,101448.02
2018-07-05T05:34:20.703Z,101445.14
2018-07-05T05:37:06.547Z,101442.14
2018-07-05T05:39:46.360Z,101435.84
2018-07-05T05:42:31.971Z,101439.89
2018-07-05T05:45:17.631Z,101442.91
2018-07-05T05:48:03.219Z,101448.42
2018-07-05T05:50:48.840Z,101452.76
2018-07-05T05:53:34.847Z,101453.11
2018-07-05T05:56:20.551Z,101459.53
2018-07-05T05:59:06.499Z,101460.77
2018-07-05T06:01:46.627Z,101457.18
2018-07-05T06:04:32.290Z,101464.62
2018-07-05T06:07:18.036Z,101466.12
2018-07-05T06:09:57.804Z,101467.91
2018-07-05T06:12:43.628Z,101465.46
2018-07-05T06:15:29.617Z,101465.28
2018-07-05T06:18:15.496Z,101464.48
2018-07-05T06:21:01.257Z,101477.81
2018-07-05T06:23:46.880Z,101484.73
2018-07-05T06:26:32.674Z,101475.91
2018-07-05T06:29:12.610Z,101477.67
2018-07-05T06:31:58.399Z,101478.77
2018-07-05T06:34:44.085Z,101479.97
2018-07-05T06:37:29.962Z,101479.81
2018-07-05T06:40:15.988Z,101474.59
2018-07-05T06:43:01.508Z,101468.89
2018-07-05T06:45:53.281Z,101467.51
2018-07-05T06:48:33.137Z,101468.11
2018-07-05T06:51:19.031Z,101473.19
2018-07-05T06:54:04.723Z,101473.04
2018-07-05T06:56:50.674Z,101474.07
2018-07-05T06:59:36.619Z,101469.78
2018-07-05T07:02:22.283Z,101469.05
2018-07-05T07:05:07.949Z,101465.39
2018-07-05T07:07:53.633Z,101464.03
2018-07-05T07:10:39.315Z,101470.42
2018-07-05T07:13:25.142Z,101464.03
2018-07-05T07:16:10.909Z,101471.31
2018-07-05T07:18:56.765Z,101465.34
2018-07-05T07:21:42.407Z,101468.00
2018-07-05T07:24:27.935Z,101472.70
2018-07-05T07:27:13.788Z,101479.94
2018-07-05T07:29:59.430Z,101475.56
2018-07-05T07:32:45.091Z,101468.64
2018-07-05T07:35:30.780Z,101476.99
2018-07-05T07:38:16.587Z,101485.30
2018-07-05T07:41:02.391Z,101488.31
2018-07-05T07:43:29.373Z,101492.39
2018-07-05T07:45:56.367Z,101483.48
2018-07-05T07:48:23.283Z,101486.25
2018-07-05T07:50:50.677Z,101490.13
2018-07-05T07:53:17.592Z,101495.15
2018-07-05T07:55:44.608Z,101496.49
2018-07-05T07:58:11.590Z,101492.83
2018-07-05T08:00:38.556Z,101489.80
2018-07-05T08:03:05.476Z,101483.67
2018-07-05T08:05:32.877Z,101492.09
2018-07-05T08:08:00.323Z,101497.00
2018-07-05T08:10:27.307Z,101484.83
2018-07-05T08:12:54.271Z,101486.02
2018-07-05T08:15:21.310Z,101485.73
2018-07-05T08:17:48.235Z,101482.20
2018-07-05T08:20:15.283Z,101479.20
2018-07-05T08:22:42.208Z,101485.25
2018-07-05T08:25:09.124Z,101484.64
2018-07-05T08:27:36.091Z,101488.45
2018-07-05T08:30:03.007Z,101483.11
2018-07-05T08:32:30.040Z,101489.94
2018-07-05T08:34:56.984Z,101492.21
2018-07-05T08:37:23.946Z,101495.78
2018-07-05T08:39:50.871Z,101496.06
2018-07-05T08:42:17.826Z,101494.98
2018-07-05T08:44:44.816Z,101492.57
2018-07-05T08:47:11.784Z,101492.80
2018-07-05T08:49:38.705Z,101490.81
2018-07-05T08:52:05.665Z,101489.89
2018-07-05T08:54:32.620Z,101489.37
2018-07-05T08:56:59.687Z,101492.67
2018-07-05T08:59:26.613Z,101495.66
2018-07-05T09:01:53.570Z,101494.48
2018-07-05T09:04:20.488Z,101485.88
2018-07-05T09:06:47.480Z,101483.78
2018-07-05T09:09:14.464Z,101484.70
2018-07-05T09:11:41.774Z,101476.05
2018-07-05T09:14:08.748Z,101479.20
2018-07-05T09:16:35.701Z,101481.45
2018-07-05T09:19:03.407Z,101482.13
2018-07-05T09:21:30.372Z,101483.91
2018-07-05T09:23:58.307Z,101483.95
2018-07-05T09:26:25.605Z,101490.22
2018-07-05T09:28:52.539Z,101478.06
2018-07-05T09:31:19.639Z,101482.25
2018-07-05T09:33:46.963Z,101475.51
2018-07-05T09:36:13.880Z,101478.97
2018-07-05T09:38:40.788Z,101471.73
2018-07-05T09:41:09.006Z,101479.66
2018-07-05T09:43:35.916Z,101477.03
2018-07-05T09:46:09.119Z,101471.62
2018-07-05T09:48:36.408Z,101468.77
2018-07-05T09:51:03.357Z,101467.53
2018-07-05T09:53:30.267Z,101469.02
2018-07-05T09:55:57.348Z,101474.01
2018-07-05T09:58:24.755Z,101472.08
2018-07-05T10:00:52.279Z,101474.78
2018-07-05T10:03:20.868Z,101472.34
2018-07-05T10:05:48.430Z,101479.26
2018-07-05T10:08:16.497Z,101469.34
2018-07-05T10:10:44.052Z,101466.30
2018-07-05T10:13:11.484Z,101460.84
2018-07-05T10:15:38.938Z,101458.09
2018-07-05T10:18:06.000Z,101470.19
2018-07-05T10:20:33.298Z,101469.04
2018-07-05T10:23:00.288Z,101458.56
2018-07-05T10:25:27.575Z,101457.89
2018-07-05T10:27:54.492Z,101468.00
2018-07-05T10:30:40.122Z,101464.42
2018-07-05T10:33:25.790Z,101471.58
2018-07-05T10:35:53.044Z,101466.41
2018-07-05T10:38:19.964Z,101462.23
2018-07-05T10:41:05.907Z,101466.31
2018-07-05T10:43:51.733Z,101465.75
2018-07-05T10:46:37.858Z,101452.86
2018-07-05T10:49:23.364Z,101453.52
2018-07-05T10:52:09.141Z,101457.83
2018-07-05T10:54:54.799Z,101467.73
2018-07-05T10:57:40.719Z,101475.19
2018-07-05T11:00:26.454Z,101473.00
2018-07-05T11:03:12.393Z,101476.73
2018-07-05T11:05:58.076Z,101476.64
2018-07-05T11:08:44.068Z,101477.20
2018-07-05T11:11:29.709Z,101479.39
2018-07-05T11:14:15.888Z,101461.36
2018-07-05T11:17:01.679Z,101447.84
2018-07-05T11:19:41.578Z,101447.15
2018-07-05T11:22:27.285Z,101452.22
2018-07-05T11:25:13.241Z,101452.03
2018-07-05T11:27:59.071Z,101444.60
2018-07-05T11:30:45.048Z,101445.39
2018-07-05T11:33:30.739Z,101447.28
2018-07-05T11:36:16.690Z,101446.16
2018-07-05T11:38:56.726Z,101447.20
2018-07-05T11:41:42.573Z,101464.13
2018-07-05T11:44:28.223Z,101455.05
2018-07-05T11:47:14.043Z,101463.31
2018-07-05T11:49:54.000Z,101463.41
2018-07-05T11:52:39.820Z,101465.36
2018-07-05T11:55:19.582Z,101466.52
2018-07-05T11:57:59.954Z,101465.59
2018-07-05T12:00:45.730Z,101471.34
2018-07-05T12:03:31.783Z,101464.88
2018-07-05T12:06:17.543Z,101463.08
2018-07-05T12:09:04.543Z,101465.33
2018-07-05T12:11:50.451Z,101463.00
2018-07-05T12:14:36.363Z,101463.66
2018-07-05T12:17:22.067Z,101469.41
2018-07-05T12:20:07.846Z,101469.72
2018-07-05T12:22:53.460Z,101479.51
2018-07-05T12:25:33.574Z,101474.23
2018-07-05T12:28:19.217Z,101471.37
2018-07-05T12:31:05.015Z,101467.25
2018-07-05T12:33:50.989Z,101463.54
2018-07-05T12:36:37.112Z,101467.40
2018-07-05T12:39:22.950Z,101467.28
2018-07-05T12:42:09.127Z,101474.13
2018-07-05T12:44:54.794Z,101469.62
2018-07-05T12:47:40.678Z,101472.70
2018-07-05T12:50:26.198Z,101485.98
2018-07-05T12:53:12.279Z,101487.02
2018-07-05T12:55:57.963Z,101484.51
2018-07-05T12:58:44.100Z,101490.81
2018-07-05T13:01:24.134Z,101493.30
2018-07-05T13:04:10.062Z,101490.25
2018-07-05T13:06:55.622Z,101488.58
2018-07-05T13:09:41.540Z,101486.60
2018-07-05T13:12:27.365Z,101492.97
2018-07-05T13:15:13.567Z,101493.83
2018-07-05T13:17:59.342Z,101493.61
2018-07-05T13:20:45.018Z,101498.31
2018-07-05T13:23:30.799Z,101499.07
2018-07-05T13:26:16.481Z,101509.33
2018-07-05T13:29:02.303Z,101510.88
2018-07-05T13:31:48.504Z,101509.31
2018-07-05T13:34:34.297Z,101511.16
2018-07-05T13:37:20.292Z,101506.73
2018-07-05T13:40:06.067Z,101508.80
2018-07-05T13:42:51.991Z,101509.11
2018-07-05T13:45:43.605Z,101508.30
2018-07-05T13:48:29.747Z,101518.73
2018-07-05T13:51:15.482Z,101516.02
2018-07-05T13:54:01.619Z,101513.27
2018-07-05T13:56:47.370Z,101516.27
2018-07-05T13:59:33.551Z,101521.42
2018-07-05T14:02:19.358Z,101518.94
2018-07-05T14:05:05.236Z,101505.86
2018-07-05T14:07:50.969Z,101520.41
2018-07-05T14:10:31.018Z,101513.66
2018-07-05T14:13:16.767Z,101515.44
2018-07-05T14:15:56.679Z,101512.43
2018-07-05T14:18:42.248Z,101505.15
2018-07-05T14:21:23.479Z,101503.39
2018-07-05T14:24:09.288Z,101511.81
2018-07-05T14:26:55.254Z,101519.66
2018-07-05T14:29:40.979Z,101517.41
2018-07-05T14:32:26.940Z,101518.45
2018-07-05T14:35:12.836Z,101510.09
2018-07-05T14:37:59.023Z,101505.75
2018-07-05T14:40:44.838Z,101516.71
2018-07-05T14:43:30.416Z,101503.03
2018-07-05T14:46:16.368Z,101502.17
2018-07-05T14:49:02.390Z,101496.80
2018-07-05T14:51:48.161Z,101507.52
2018-07-05T14:54:34.096Z,101499.64
2018-07-05T14:57:20.098Z,101508.86
2018-07-05T14:59:59.986Z,101511.35
2018-07-05T15:02:45.762Z,101510.88
2018-07-05T15:05:31.787Z,101517.42
2018-07-05T15:08:17.586Z,101522.75
2018-07-05T15:11:03.615Z,101523.93
2018-07-05T15:13:49.137Z,101511.96
2018-07-05T15:16:35.145Z,101519.05
2018-07-05T15:19:15.120Z,101509.09
2018-07-05T15:22:01.110Z,101515.17
2018-07-05T15:24:47.072Z,101516.35
2018-07-05T15:27:32.920Z,101516.41
2018-07-05T15:30:18.991Z,101507.62
2018-07-05T15:33:04.939Z,101507.44
2018-07-05T15:35:50.503Z,101506.22
2018-07-05T15:38:36.324Z,101512.97
2018-07-05T15:41:16.226Z,101508.16
2018-07-05T15:43:56.651Z,101507.09
2018-07-05T15:46:42.385Z,101507.98
2018-07-05T15:49:28.536Z,101506.65
2018-07-05T15:52:14.119Z,101503.70
2018-07-05T15:54:59.875Z,101499.05
2018-07-05T15:57:45.435Z,101502.00
2018-07-05T16:00:25.442Z,101502.84
2018-07-05T16:03:11.158Z,101496.99
2018-07-05T16:05:57.023Z,101499.81
2018-07-05T16:08:42.730Z,101496.86
2018-07-05T16:11:28.912Z,101496.91
2018-07-05T16:14:14.582Z,101496.66
2018-07-05T16:17:00.377Z,101500.23
2018-07-05T16:19:46.065Z,101502.17
2018-07-05T16:22:31.784Z,101499.53
2018-07-05T16:25:18.260Z,101490.03
2018-07-05T16:28:04.147Z,101489.48
2018-07-05T16:30:49.784Z,101494.67
2018-07-05T16:33:35.611Z,101496.73
2018-07-05T16:36:15.311Z,101504.37
2018-07-05T16:39:01.477Z,101490.74
2018-07-05T16:41:47.209Z,101488.52
2018-07-05T16:44:33.136Z,101490.25
2018-07-05T16:47:12.978Z,101492.17
2018-07-05T16:49:58.982Z,101485.71
2018-07-05T16:52:44.766Z,101479.15
2018-07-05T16:55:30.722Z,101482.84
2018-07-05T16:58:16.639Z,101493.84
2018-07-05T17:01:02.468Z,101490.51
2018-07-05T17:03:48.268Z,101490.83
2018-07-05T17:06:28.467Z,101493.12
2018-07-05T17:09:08.306Z,101504.25
2018-07-05T17:11:54.974Z,101498.28
2018-07-05T17:14:40.689Z,101500.97
2018-07-05T17:17:26.534Z,101503.66
2018-07-05T17:20:12.275Z,101502.13
2018-07-05T17:22:58.097Z,101507.97
2018-07-05T17:25:45.330Z,101496.73
2018-07-05T17:28:31.013Z,101500.03
2018-07-05T17:31:16.870Z,101492.19
2018-07-05T17:34:02.595Z,101495.72
2018-07-05T17:36:48.422Z,101511.25
2018-07-05T17:39:33.972Z,101506.78
2018-07-05T17:42:19.880Z,101511.42
2018-07-05T17:44:59.732Z,101508.41
2018-07-05T17:47:45.875Z,101511.77
2018-07-05T17:50:31.575Z,101513.47
2018-07-05T17:53:17.771Z,101514.83
2018-07-05T17:56:03.459Z,101513.70
2018-07-05T17:58:49.301Z,101516.64
2018-07-05T18:01:35.124Z,101531.27
2018-07-05T18:04:15.175Z,101537.12
2018-07-05T18:07:01.092Z,101529.74
2018-07-05T18:09:46.857Z,101532.15
2018-07-05T18:12:32.496Z,101538.45
2018-07-05T18:15:18.446Z,101540.31
2018-07-05T18:18:04.131Z,101539.73
2018-07-05T18:20:49.725Z,101538.34
2018-07-05T18:23:35.267Z,101541.73
2018-07-05T18:26:21.500Z,101543.13
2018-07-05T18:29:07.145Z,101546.69
2018-07-05T18:31:52.837Z,101551.03
2018-07-05T18:34:38.458Z,101550.86
2018-07-05T18:37:24.555Z,101556.77
2018-07-05T18:40:10.139Z,101568.42
2018-07-05T18:42:55.852Z,101570.02
2018-07-05T18:45:47.787Z,101574.16
2018-07-05T18:48:33.847Z,101576.28
2018-07-05T18:51:19.468Z,101583.37
2018-07-05T18:53:59.620Z,101583.94
2018-07-05T18:56:45.405Z,101586.13
2018-07-05T18:59:27.874Z,101584.27
2018-07-05T19:02:13.412Z,101586.56
2018-07-05T19:04:53.113Z,101598.93
2018-07-05T19:07:38.861Z,101594.56
2018-07-05T19:10:24.704Z,101600.19
2018-07-05T19:13:10.539Z,101602.93
2018-07-05T19:15:56.570Z,101600.20
2018-07-05T19:18:42.233Z,101604.45
2018-07-05T19:21:28.152Z,101610.20
2018-07-05T19:24:13.920Z,101612.82
2018-07-05T19:26:59.647Z,101613.70
2018-07-05T19:29:45.315Z,101621.48
2018-07-05T19:32:31.520Z,101618.04
2018-07-05T19:35:17.403Z,101618.87
2018-07-05T19:38:03.364Z,101619.84
2018-07-05T19:40:49.188Z,101623.66
2018-07-05T19:43:36.323Z,101623.81
2018-07-05T19:46:21.968Z,101625.23
2018-07-05T19:49:08.182Z,101628.75
2018-07-05T19:51:53.884Z,101636.47
2018-07-05T19:54:39.881Z,101641.16
2018-07-05T19:57:25.498Z,101636.47
2018-07-05T20:00:05.804Z,101633.11
2018-07-05T20:02:51.382Z,101634.89
2018-07-05T20:05:31.542Z,101637.78
2018-07-05T20:08:17.175Z,101640.46
2018-07-05T20:11:00.371Z,101636.31
2018-07-05T20:13:46.251Z,101631.22
2018-07-05T20:16:32.344Z,101632.33
2018-07-05T20:19:18.120Z,101637.56
2018-07-05T20:22:06.880Z,101640.33
2018-07-05T20:24:52.503Z,101639.23
2018-07-05T20:27:38.777Z,101642.36
2018-07-05T20:30:24.403Z,101645.98
2018-07-05T20:33:10.455Z,101652.39
2018-07-05T20:35:56.557Z,101649.41
2018-07-05T20:38:42.950Z,101657.22
2018-07-05T20:41:28.609Z,101659.76
2018-07-05T20:44:14.388Z,101659.81
2018-07-05T20:47:00.017Z,101654.19
2018-07-05T20:49:46.205Z,101657.88
2018-07-05T20:52:31.772Z,101662.46
2018-07-05T20:55:17.767Z,101663.06
2018-07-05T20:58:03.468Z,101661.16
2018-07-05T21:00:49.645Z,101660.39
2018-07-05T21:03:35.015Z,101663.92
2018-07-05T21:06:20.663Z,101665.36
2018-07-05T21:09:00.449Z,101670.38
2018-07-05T21:11:46.472Z,101672.42
2018-07-05T21:14:32.133Z,101684.20
2018-07-05T21:17:18.159Z,101677.66
2018-07-05T21:19:58.021Z,101673.30
2018-07-05T21:22:44.302Z,101676.34
2018-07-05T21:25:30.021Z,101676.80
2018-07-05T21:28:10.010Z,101681.77
2018-07-05T21:30:55.602Z,101686.60
2018-07-05T21:33:41.725Z,101691.45
2018-07-05T21:36:27.480Z,101682.82
2018-07-05T21:39:13.499Z,101685.16
2018-07-05T21:41:59.559Z,101688.44
2018-07-05T21:44:45.680Z,101689.46
2018-07-05T21:47:31.642Z,101686.19
2018-07-05T21:50:17.517Z,101684.14
2018-07-05T21:52:57.445Z,101693.17
2018-07-05T21:55:43.514Z,101692.83
2018-07-05T21:58:29.117Z,101695.71
2018-07-05T22:01:15.095Z,101692.40
2018-07-05T22:04:00.669Z,101702.12
2018-07-05T22:06:46.555Z,101704.23
2018-07-05T22:09:32.037Z,101707.30
2018-07-05T22:12:18.161Z,101698.44
2018-07-05T22:15:03.924Z,101703.16
2018-07-05T22:17:49.931Z,101693.23
2018-07-05T22:20:41.100Z,101693.91
2018-07-05T22:23:32.871Z,101692.05
2018-07-05T22:26:24.249Z,101694.03
2018-07-05T22:29:15.915Z,101696.26
2018-07-05T22:32:01.530Z,101698.11
2018-07-05T22:34:47.499Z,101700.45
2018-07-05T22:37:33.057Z,101702.25
2018-07-05T22:40:13.129Z,101699.91
2018-07-05T22:42:58.720Z,101702.31
2018-07-05T22:45:44.911Z,101703.98
2018-07-05T22:48:30.603Z,101695.36
2018-07-05T22:51:16.464Z,101688.02
2018-07-05T22:54:02.245Z,101691.29
2018-07-05T22:56:48.990Z,101691.94
2018-07-05T22:59:34.648Z,101691.37
2018-07-05T23:02:14.659Z,101688.62
2018-07-05T23:04:54.516Z,101688.48
2018-07-05T23:07:34.631Z,101692.61
2018-07-05T23:10:20.347Z,101692.73
2018-07-05T23:13:06.620Z,101697.02
2018-07-05T23:15:52.327Z,101692.58
2018-07-05T23:18:38.403Z,101695.20
2018-07-05T23:21:24.065Z,101705.09
2018-07-05T23:24:09.972Z,101699.04
2018-07-05T23:26:55.728Z,101699.61
2018-07-05T23:29:41.545Z,101701.64
2018-07-05T23:32:27.181Z,101701.59
2018-07-05T23:35:13.065Z,101704.56
2018-07-05T23:37:52.797Z,101700.61
2018-07-05T23:40:38.773Z,101697.77
2018-07-05T23:43:24.391Z,101695.97
2018-07-05T23:46:10.296Z,101701.15
2018-07-05T23:48:56.045Z,101694.27
2018-07-05T23:51:41.756Z,101693.03
2018-07-05T23:54:21.617Z,101695.55
2018-07-05T23:57:07.555Z,101697.92
2018-07-05T23:59:53.371Z,101702.15
